KBMT/BMT METAR and TAF weather

Enter ICAO airport designator
Station Type Date Time Source
KBMT METAR 2020/07/06 08:35 UTC NOAA

KBMT 060835Z AUTO 00000KT 10SM OVC110 27/26 A2985 RMK AO2 T02680255


Station Type Date Time Source
KBMT Decoded METAR 2020/07/06 08:35 UTC NOAA

Station name not available
Jul 06, 2020 - 04:35 AM EDT / 2020.07.06 0835 UTC
Wind: Calm:0
Visibility: 10 mile(s):0
Sky conditions: overcast
Temperature: 80.2 F (26.8 C)
Dew Point: 77.9 F (25.5 C)
Relative Humidity: 92%
Pressure (altimeter): 29.85 in. Hg (1010 hPa)
ob: KBMT 060835Z AUTO 00000KT 10SM OVC110 27/26 A2985 RMK AO2 T02680255
cycle: 8

Station Type Date Time Source
KBMT TAF UTC NOAA

Error!

Example: see airport list